« Back
NWS Peachtree City, Ga » Text Product » CSG Terminal Aerodrome Forecast

Printer-friendly Version
Current Version              Previous Versions:   1  2  3  4  5  6  7  8  9  

Terminal Aerodrome Forecast

FTUS42 KFFC 091122
KCSG 091122Z 0912/1012 00000KT P6SM SCT040
      TEMPO 0912/0915 BKN040
     FM091500 19003KT P6SM BKN035
     FM091800 26004KT P6SM BKN040
     FM100500 00000KT P6SM VCSH OVC035
     FM100900 00000KT 5SM -SHRA BR OVC025=

USA.gov is the U.S. government's official web portal to all federal, state and local government web resources and services.